Time;durP1;ratioP1;P1;durP2;ratioP2;P2;SDS_P1;SDS_P2;PMS_P1;PMS_P2;Temp;Humidity;BMP_temperature;BMP_pressure;BME280_temperature;BME280_humidity;BME280_pressure;Samples;Min_cycle;Max_cycle;Signal;HPM_P1;HPM_P2
2023/04/24 00:00:14;;;;;;;1.23;1.13;;;;;;;;;;8283339;28;20033;-75
2023/04/24 00:04:16;;;;;;;0.75;0.70;;;;;;;;;;8287426;28;20163;-74
2023/04/24 00:08:16;;;;;;;2.10;0.75;;;;;;;;;;8277225;28;20021;-75
2023/04/24 00:12:17;;;;;;;2.60;0.88;;;;;;;;;;8288985;28;20031;-74
2023/04/24 00:16:17;;;;;;;3.47;0.90;;;;;;;;;;8284332;28;20056;-74
2023/04/24 00:20:18;;;;;;;2.30;0.80;;;;;;;;;;8286110;28;20025;-74
2023/04/24 00:24:19;;;;;;;2.45;0.93;;;;;;;;;;8289966;28;20064;-75
2023/04/24 00:28:19;;;;;;;1.02;0.70;;;;;;;;;;8283244;28;20025;-75
2023/04/24 00:32:19;;;;;;;1.48;0.95;;;;;;;;;;8284310;28;20038;-75
2023/04/24 00:36:20;;;;;;;0.80;0.80;;;;;;;;;;8285304;28;20026;-74
2023/04/24 00:40:20;;;;;;;2.72;1.05;;;;;;;;;;8283617;28;20022;-75
2023/04/24 00:44:20;;;;;;;2.27;0.90;;;;;;;;;;8282996;28;20060;-74
2023/04/24 00:48:21;;;;;;;1.30;0.80;;;;;;;;;;8285076;28;20284;-74
2023/04/24 00:52:24;;;;;;;3.30;0.80;;;;;;;;;;8289424;28;20037;-74
2023/04/24 00:56:24;;;;;;;2.30;0.98;;;;;;;;;;8284337;28;20445;-75
2023/04/24 01:00:25;;;;;;;0.60;0.60;;;;;;;;;;8283742;28;20041;-75
2023/04/24 01:04:26;;;;;;;4.63;1.00;;;;;;;;;;8283633;28;20035;-75
2023/04/24 01:08:28;;;;;;;2.45;1.05;;;;;;;;;;8285198;28;20025;-75
2023/04/24 01:12:28;;;;;;;1.77;0.68;;;;;;;;;;8297846;28;20121;-75
2023/04/24 01:16:28;;;;;;;2.97;0.77;;;;;;;;;;8282350;28;20068;-75
2023/04/24 01:20:29;;;;;;;2.72;1.00;;;;;;;;;;8283771;28;20343;-75
2023/04/24 01:24:30;;;;;;;1.40;1.00;;;;;;;;;;8279039;28;20768;-75
2023/04/24 01:28:30;;;;;;;2.90;0.80;;;;;;;;;;8284532;28;20033;-75
2023/04/24 01:32:30;;;;;;;1.08;0.82;;;;;;;;;;8280061;28;20528;-75
2023/04/24 01:36:32;;;;;;;1.90;0.80;;;;;;;;;;8280110;28;20033;-75
2023/04/24 01:40:32;;;;;;;1.90;0.80;;;;;;;;;;8278251;28;21444;-74
2023/04/24 01:44:33;;;;;;;2.30;0.80;;;;;;;;;;8297891;28;20029;-75
2023/04/24 01:48:33;;;;;;;1.27;0.80;;;;;;;;;;8283699;28;20288;-74
2023/04/24 01:52:35;;;;;;;1.42;0.85;;;;;;;;;;8290909;28;20029;-74
2023/04/24 01:56:36;;;;;;;1.83;0.70;;;;;;;;;;8300118;28;20679;-75
2023/04/24 02:00:36;;;;;;;0.82;0.70;;;;;;;;;;8295255;28;20446;-75
2023/04/24 02:04:36;;;;;;;2.10;0.73;;;;;;;;;;8292711;28;20584;-75
2023/04/24 02:08:37;;;;;;;0.50;0.50;;;;;;;;;;8296398;28;20280;-75
2023/04/24 02:12:37;;;;;;;0.40;0.40;;;;;;;;;;8291903;28;21082;-74
2023/04/24 02:16:37;;;;;;;1.85;0.80;;;;;;;;;;8294057;28;20055;-74
2023/04/24 02:20:37;;;;;;;0.63;0.60;;;;;;;;;;8295559;28;20118;-74
2023/04/24 02:24:38;;;;;;;0.50;0.50;;;;;;;;;;8291047;28;20057;-74
2023/04/24 02:28:38;;;;;;;0.75;0.70;;;;;;;;;;8293164;28;20036;-74
2023/04/24 02:32:39;;;;;;;0.70;0.70;;;;;;;;;;8293422;28;20111;-74
2023/04/24 02:36:39;;;;;;;1.38;0.50;;;;;;;;;;8293326;28;20029;-74
2023/04/24 02:40:39;;;;;;;1.45;0.70;;;;;;;;;;8290420;28;20802;-75
2023/04/24 02:44:40;;;;;;;0.70;0.70;;;;;;;;;;8291575;28;20021;-74
2023/04/24 02:48:40;;;;;;;1.27;0.70;;;;;;;;;;8291617;28;20502;-74
2023/04/24 02:52:41;;;;;;;0.73;0.70;;;;;;;;;;8302152;28;20981;-74
2023/04/24 02:56:41;;;;;;;0.73;0.63;;;;;;;;;;8293955;28;20052;-74
2023/04/24 03:00:41;;;;;;;1.08;1.00;;;;;;;;;;8288702;28;20032;-74
2023/04/24 03:04:42;;;;;;;1.80;1.50;;;;;;;;;;8280101;28;20056;-74
2023/04/24 03:08:43;;;;;;;2.05;1.08;;;;;;;;;;8285601;28;20333;-74
2023/04/24 03:12:43;;;;;;;1.55;1.00;;;;;;;;;;8287212;28;20022;-74
2023/04/24 03:16:43;;;;;;;3.97;1.30;;;;;;;;;;8287138;28;20026;-74
2023/04/24 03:20:45;;;;;;;1.27;1.17;;;;;;;;;;8286283;28;20132;-74
2023/04/24 03:24:45;;;;;;;2.47;1.70;;;;;;;;;;8286463;28;20041;-74
2023/04/24 03:28:45;;;;;;;2.72;1.35;;;;;;;;;;8286530;28;20095;-74
2023/04/24 03:32:45;;;;;;;1.77;1.52;;;;;;;;;;8287474;28;20034;-73
2023/04/24 03:36:47;;;;;;;1.52;1.33;;;;;;;;;;8285637;28;20033;-74
2023/04/24 03:40:47;;;;;;;1.30;1.20;;;;;;;;;;8286272;28;20033;-74
2023/04/24 03:44:48;;;;;;;1.50;1.40;;;;;;;;;;8287693;28;20022;-73
2023/04/24 03:48:48;;;;;;;3.72;1.40;;;;;;;;;;8285491;28;20076;-74
2023/04/24 03:52:48;;;;;;;2.30;1.90;;;;;;;;;;8288203;28;20040;-73
2023/04/24 03:56:48;;;;;;;2.50;1.33;;;;;;;;;;8286196;28;20022;-74
2023/04/24 04:00:49;;;;;;;1.83;1.58;;;;;;;;;;8283583;28;20095;-74
2023/04/24 04:04:49;;;;;;;2.42;1.75;;;;;;;;;;8307612;28;20021;-74
2023/04/24 04:08:50;;;;;;;1.60;1.50;;;;;;;;;;8284757;28;20057;-74
2023/04/24 04:12:50;;;;;;;2.97;1.60;;;;;;;;;;8285825;28;20029;-74
2023/04/24 04:16:51;;;;;;;2.00;1.60;;;;;;;;;;8283563;28;20371;-74
2023/04/24 04:20:51;;;;;;;2.70;1.70;;;;;;;;;;8286675;28;20036;-74
2023/04/24 04:24:51;;;;;;;4.40;1.92;;;;;;;;;;8284953;28;20041;-74
2023/04/24 04:28:52;;;;;;;3.10;1.70;;;;;;;;;;8279981;28;20103;-73
2023/04/24 04:32:53;;;;;;;2.03;1.77;;;;;;;;;;8289473;28;20160;-74
2023/04/24 04:36:53;;;;;;;2.00;1.90;;;;;;;;;;8290657;28;20730;-74
2023/04/24 04:40:53;;;;;;;1.90;1.75;;;;;;;;;;8285027;28;20022;-74
2023/04/24 04:44:53;;;;;;;2.20;2.00;;;;;;;;;;8288148;28;20017;-74
2023/04/24 04:48:54;;;;;;;3.60;2.57;;;;;;;;;;8282059;28;20033;-74
2023/04/24 04:52:54;;;;;;;3.95;2.65;;;;;;;;;;8283675;28;20099;-75
2023/04/24 04:56:55;;;;;;;5.57;2.67;;;;;;;;;;8284835;28;20033;-75
2023/04/24 05:00:57;;;;;;;5.28;2.60;;;;;;;;;;8285216;28;20030;-74
2023/04/24 05:04:57;;;;;;;5.50;2.67;;;;;;;;;;8284887;28;20635;-75
2023/04/24 05:08:57;;;;;;;4.63;2.75;;;;;;;;;;8282270;28;20112;-74
2023/04/24 05:12:57;;;;;;;3.97;2.80;;;;;;;;;;8280758;28;20021;-74
2023/04/24 05:16:58;;;;;;;5.38;2.90;;;;;;;;;;8284816;28;20577;-75
2023/04/24 05:20:58;;;;;;;4.18;2.75;;;;;;;;;;8283670;28;20060;-74
2023/04/24 05:24:58;;;;;;;3.20;2.90;;;;;;;;;;8281318;28;20029;-74
2023/04/24 05:28:58;;;;;;;4.28;3.08;;;;;;;;;;8293259;28;20034;-75
2023/04/24 05:32:58;;;;;;;3.63;3.30;;;;;;;;;;8281938;28;20029;-74
2023/04/24 05:36:58;;;;;;;3.08;2.88;;;;;;;;;;8283805;28;20025;-74
2023/04/24 05:40:59;;;;;;;4.78;3.17;;;;;;;;;;8280612;28;20029;-74
2023/04/24 05:44:59;;;;;;;6.50;3.92;;;;;;;;;;8281367;28;20565;-74
2023/04/24 05:49:00;;;;;;;3.73;3.43;;;;;;;;;;8281300;28;20036;-74
2023/04/24 05:53:01;;;;;;;4.10;3.65;;;;;;;;;;8280396;28;20286;-75
2023/04/24 05:57:07;;;;;;;3.75;3.35;;;;;;;;;;8285869;28;20377;-75
2023/04/24 06:01:07;;;;;;;4.65;3.33;;;;;;;;;;8278607;28;20037;-74
2023/04/24 06:05:08;;;;;;;4.33;3.23;;;;;;;;;;8284769;28;20853;-75
2023/04/24 06:09:08;;;;;;;6.50;3.00;;;;;;;;;;8281592;28;20136;-76
2023/04/24 06:13:08;;;;;;;6.35;2.90;;;;;;;;;;8283585;28;20152;-75
2023/04/24 06:17:08;;;;;;;5.07;2.70;;;;;;;;;;8282007;28;20084;-74
2023/04/24 06:21:09;;;;;;;6.87;2.50;;;;;;;;;;8282542;28;20481;-74
2023/04/24 06:25:09;;;;;;;3.17;2.57;;;;;;;;;;8280986;28;20300;-75
2023/04/24 06:29:09;;;;;;;3.40;2.65;;;;;;;;;;8279709;28;20036;-74
2023/04/24 06:33:10;;;;;;;3.47;2.40;;;;;;;;;;8279531;28;20038;-75
2023/04/24 06:37:10;;;;;;;5.38;2.80;;;;;;;;;;8280077;28;20271;-75
2023/04/24 06:41:10;;;;;;;3.13;2.35;;;;;;;;;;8286421;28;20783;-75
2023/04/24 06:45:11;;;;;;;2.58;2.33;;;;;;;;;;8276122;28;20063;-74
2023/04/24 06:49:11;;;;;;;5.50;2.40;;;;;;;;;;8285330;28;20094;-75
2023/04/24 06:53:14;;;;;;;3.00;2.20;;;;;;;;;;8287245;28;20032;-75
2023/04/24 06:57:16;;;;;;;4.10;2.30;;;;;;;;;;8285618;28;20804;-75
2023/04/24 07:01:16;;;;;;;3.45;2.15;;;;;;;;;;8287576;28;20034;-75
2023/04/24 07:05:19;;;;;;;2.03;1.90;;;;;;;;;;8289763;28;20063;-75
2023/04/24 07:09:20;;;;;;;2.20;2.00;;;;;;;;;;8288966;28;20033;-75
2023/04/24 07:13:20;;;;;;;1.90;1.70;;;;;;;;;;8287269;28;20028;-75
2023/04/24 07:17:20;;;;;;;2.38;2.17;;;;;;;;;;8287492;28;20028;-75
2023/04/24 07:21:20;;;;;;;3.60;2.08;;;;;;;;;;8285824;28;20037;-76
2023/04/24 07:25:20;;;;;;;2.45;1.77;;;;;;;;;;8289162;28;20052;-75
2023/04/24 07:29:21;;;;;;;2.85;1.80;;;;;;;;;;8289530;28;20643;-74
2023/04/24 07:33:21;;;;;;;1.70;1.60;;;;;;;;;;8289295;28;20029;-75
2023/04/24 07:37:21;;;;;;;3.35;1.80;;;;;;;;;;8286894;28;20280;-75
2023/04/24 07:41:21;;;;;;;1.80;1.70;;;;;;;;;;8287364;28;20144;-76
2023/04/24 07:45:23;;;;;;;2.10;1.90;;;;;;;;;;8280733;28;20037;-75
2023/04/24 07:49:23;;;;;;;2.83;1.88;;;;;;;;;;8286919;28;21493;-75
2023/04/24 07:53:23;;;;;;;2.95;2.20;;;;;;;;;;8286936;28;20031;-75
2023/04/24 07:57:24;;;;;;;4.13;1.90;;;;;;;;;;8285770;28;20956;-75
2023/04/24 08:01:24;;;;;;;2.88;1.90;;;;;;;;;;8285617;28;20354;-75
2023/04/24 08:05:27;;;;;;;3.78;2.00;;;;;;;;;;8289196;28;20633;-74
2023/04/24 08:09:27;;;;;;;2.35;1.83;;;;;;;;;;8286122;28;20797;-75
2023/04/24 08:13:27;;;;;;;4.97;1.77;;;;;;;;;;8286702;28;20099;-75
2023/04/24 08:17:27;;;;;;;3.17;1.80;;;;;;;;;;8284861;28;20029;-75
2023/04/24 08:21:27;;;;;;;2.05;1.80;;;;;;;;;;8287273;28;20872;-75
2023/04/24 08:25:27;;;;;;;2.60;1.90;;;;;;;;;;8286138;28;20040;-75
2023/04/24 08:29:28;;;;;;;2.63;2.42;;;;;;;;;;8285024;28;20297;-74
2023/04/24 08:33:33;;;;;;;2.67;2.15;;;;;;;;;;8287741;28;20136;-74
2023/04/24 08:37:34;;;;;;;3.83;1.98;;;;;;;;;;8283623;28;20033;-74
2023/04/24 08:41:34;;;;;;;3.85;2.00;;;;;;;;;;8287705;28;20029;-76
2023/04/24 08:45:34;;;;;;;2.53;2.20;;;;;;;;;;8286827;28;20033;-75
2023/04/24 08:49:36;;;;;;;2.58;2.10;;;;;;;;;;8282959;28;20284;-75
2023/04/24 08:53:36;;;;;;;3.88;2.22;;;;;;;;;;8284241;28;20136;-75
2023/04/24 08:57:39;;;;;;;3.05;2.15;;;;;;;;;;8285108;28;20115;-75
2023/04/24 09:01:40;;;;;;;2.40;2.00;;;;;;;;;;8286726;28;20136;-75
2023/04/24 09:05:45;;;;;;;2.90;2.40;;;;;;;;;;8286293;28;20052;-75
2023/04/24 09:09:45;;;;;;;5.40;2.35;;;;;;;;;;8285767;28;20528;-75
2023/04/24 09:13:46;;;;;;;2.83;2.53;;;;;;;;;;8283389;28;20022;-75
2023/04/24 09:17:47;;;;;;;3.15;2.50;;;;;;;;;;8284712;28;20379;-75
2023/04/24 09:21:47;;;;;;;4.10;2.72;;;;;;;;;;8301805;28;20128;-76
2023/04/24 09:25:53;;;;;;;4.72;2.90;;;;;;;;;;8284742;28;20021;-75
2023/04/24 09:29:55;;;;;;;4.25;2.47;;;;;;;;;;8283728;28;20021;-76
2023/04/24 09:33:56;;;;;;;4.05;2.17;;;;;;;;;;8284415;28;20036;-75
2023/04/24 09:37:57;;;;;;;2.90;2.38;;;;;;;;;;8284331;28;20123;-75
2023/04/24 09:41:58;;;;;;;2.33;2.13;;;;;;;;;;8286361;28;20549;-76
2023/04/24 09:45:59;;;;;;;2.85;2.30;;;;;;;;;;8284257;28;20711;-75
2023/04/24 09:50:08;;;;;;;2.88;2.33;;;;;;;;;;8282782;28;20025;-74
2023/04/24 09:54:15;;;;;;;2.78;2.00;;;;;;;;;;8284688;28;20044;-76
2023/04/24 09:58:16;;;;;;;3.03;2.33;;;;;;;;;;8282712;28;20383;-75
2023/04/24 10:02:17;;;;;;;5.93;2.10;;;;;;;;;;8284323;28;20057;-75
2023/04/24 10:06:17;;;;;;;5.53;2.00;;;;;;;;;;8284910;28;20017;-75
2023/04/24 10:10:17;;;;;;;2.38;1.80;;;;;;;;;;8279159;28;20601;-75
2023/04/24 10:14:20;;;;;;;1.98;1.80;;;;;;;;;;8289765;28;20030;-76
2023/04/24 10:18:21;;;;;;;2.55;2.00;;;;;;;;;;8290118;28;20744;-76
2023/04/24 10:22:22;;;;;;;1.95;1.60;;;;;;;;;;8293667;28;20055;-76
2023/04/24 10:26:22;;;;;;;2.05;1.85;;;;;;;;;;8290826;28;21029;-75
2023/04/24 10:30:23;;;;;;;2.23;2.03;;;;;;;;;;8287155;28;20407;-75
2023/04/24 10:34:23;;;;;;;3.03;2.30;;;;;;;;;;8290892;28;20044;-75
2023/04/24 10:38:26;;;;;;;2.67;2.08;;;;;;;;;;8288544;28;20381;-75
2023/04/24 10:42:27;;;;;;;2.50;2.30;;;;;;;;;;8286911;28;20025;-74
2023/04/24 10:46:27;;;;;;;3.97;2.35;;;;;;;;;;8288051;28;20092;-75
2023/04/24 10:50:29;;;;;;;2.60;2.35;;;;;;;;;;8287547;28;20026;-75
2023/04/24 10:54:33;;;;;;;2.40;2.20;;;;;;;;;;8289760;28;20148;-75
2023/04/24 10:58:51;;;;;;;3.83;2.60;;;;;;;;;;8287785;28;20021;-75
2023/04/24 11:02:52;;;;;;;2.60;2.40;;;;;;;;;;8289332;28;20070;-75
2023/04/24 11:06:53;;;;;;;3.40;2.67;;;;;;;;;;8287013;28;20141;-75
2023/04/24 11:11:07;;;;;;;3.55;2.70;;;;;;;;;;8287701;28;20090;-75
2023/04/24 11:15:10;;;;;;;4.70;2.75;;;;;;;;;;8286487;28;20026;-74
2023/04/24 11:19:13;;;;;;;4.03;2.77;;;;;;;;;;8288515;28;20049;-75
2023/04/24 11:23:14;;;;;;;4.40;2.47;;;;;;;;;;8285761;28;20439;-76
2023/04/24 11:27:19;;;;;;;3.60;2.67;;;;;;;;;;8287804;28;20531;-77
2023/04/24 11:31:39;;;;;;;5.72;2.60;;;;;;;;;;8285179;28;20773;-76
2023/04/24 11:35:40;;;;;;;2.92;2.67;;;;;;;;;;8288946;28;20527;-76
2023/04/24 11:39:40;;;;;;;3.50;2.78;;;;;;;;;;8283872;28;21506;-76
2023/04/24 11:43:41;;;;;;;2.70;2.47;;;;;;;;;;8284491;28;20458;-76
2023/04/24 11:47:41;;;;;;;3.38;3.08;;;;;;;;;;8282963;28;20043;-76
2023/04/24 11:51:42;;;;;;;5.60;2.53;;;;;;;;;;8287240;28;20108;-76
2023/04/24 11:55:42;;;;;;;7.05;2.90;;;;;;;;;;8289428;28;20670;-76
2023/04/24 11:59:42;;;;;;;4.85;2.70;;;;;;;;;;8283598;28;20809;-76
2023/04/24 12:03:46;;;;;;;3.55;2.80;;;;;;;;;;8286293;28;20810;-76
2023/04/24 12:07:47;;;;;;;4.88;2.95;;;;;;;;;;8299676;28;20113;-76
2023/04/24 12:11:56;;;;;;;4.97;3.08;;;;;;;;;;8282713;28;20072;-76
2023/04/24 12:15:57;;;;;;;6.03;2.75;;;;;;;;;;8297122;28;20047;-76
2023/04/24 12:20:00;;;;;;;5.15;2.80;;;;;;;;;;8285662;28;20029;-76
2023/04/24 12:24:01;;;;;;;3.65;2.78;;;;;;;;;;8286409;28;20033;-75
2023/04/24 12:28:04;;;;;;;4.43;3.20;;;;;;;;;;8282292;28;20501;-75
2023/04/24 12:32:04;;;;;;;7.32;3.75;;;;;;;;;;8283719;28;20115;-75
2023/04/24 12:36:06;;;;;;;6.53;3.45;;;;;;;;;;8285768;28;20637;-75
2023/04/24 12:40:07;;;;;;;4.85;3.55;;;;;;;;;;8274399;28;20021;-75
2023/04/24 12:44:10;;;;;;;2.80;2.58;;;;;;;;;;8287437;28;20086;-75
2023/04/24 12:48:10;;;;;;;6.50;3.05;;;;;;;;;;8281696;28;20083;-76
2023/04/24 12:52:10;;;;;;;4.70;3.00;;;;;;;;;;8284269;28;20057;-76
2023/04/24 12:56:11;;;;;;;4.43;2.80;;;;;;;;;;8281491;28;20017;-76
2023/04/24 13:00:11;;;;;;;3.03;2.30;;;;;;;;;;8282301;28;20029;-75
2023/04/24 13:04:11;;;;;;;4.25;2.60;;;;;;;;;;8278729;28;20493;-76
2023/04/24 13:08:12;;;;;;;2.58;2.22;;;;;;;;;;8282095;28;20029;-75
2023/04/24 13:12:13;;;;;;;3.35;2.70;;;;;;;;;;8279595;28;20025;-75
2023/04/24 13:16:13;;;;;;;3.80;2.55;;;;;;;;;;8280648;28;20072;-74
2023/04/24 13:20:13;;;;;;;2.50;2.30;;;;;;;;;;8282254;28;21112;-74
2023/04/24 13:24:15;;;;;;;4.45;2.53;;;;;;;;;;8281025;28;20025;-75
2023/04/24 13:28:15;;;;;;;3.33;2.47;;;;;;;;;;8280910;28;20037;-75
2023/04/24 13:32:16;;;;;;;2.60;2.40;;;;;;;;;;8272127;28;20044;-75
2023/04/24 13:36:17;;;;;;;4.82;2.60;;;;;;;;;;8280513;28;20017;-75
2023/04/24 13:40:17;;;;;;;3.25;2.33;;;;;;;;;;8280015;28;20943;-75
2023/04/24 13:44:18;;;;;;;3.13;2.50;;;;;;;;;;8281329;28;20029;-75
2023/04/24 13:48:18;;;;;;;3.55;2.80;;;;;;;;;;8278691;28;20034;-75
2023/04/24 13:52:18;;;;;;;3.50;2.43;;;;;;;;;;8281704;28;20079;-75
2023/04/24 13:56:20;;;;;;;3.90;2.27;;;;;;;;;;8283828;28;20280;-75
2023/04/24 14:00:20;;;;;;;3.20;2.50;;;;;;;;;;8278285;28;20032;-76
2023/04/24 14:04:20;;;;;;;3.83;2.72;;;;;;;;;;8271439;28;20025;-75
2023/04/24 14:08:21;;;;;;;5.00;2.75;;;;;;;;;;8276397;28;20029;-75
2023/04/24 14:12:21;;;;;;;3.27;2.40;;;;;;;;;;8277612;28;20120;-78
2023/04/24 14:16:22;;;;;;;5.90;2.73;;;;;;;;;;8293707;28;20038;-75
2023/04/24 14:20:22;;;;;;;4.90;2.50;;;;;;;;;;8290739;28;20845;-76
2023/04/24 14:24:23;;;;;;;4.10;2.97;;;;;;;;;;8282547;28;20037;-76
2023/04/24 14:28:24;;;;;;;6.38;2.97;;;;;;;;;;8280801;28;20052;-76
2023/04/24 14:32:24;;;;;;;3.28;2.70;;;;;;;;;;8283242;28;20080;-76
2023/04/24 14:36:24;;;;;;;5.18;3.10;;;;;;;;;;8280686;28;20036;-74
2023/04/24 14:40:24;;;;;;;4.13;3.07;;;;;;;;;;8279216;28;20907;-76
2023/04/24 14:44:25;;;;;;;4.00;2.60;;;;;;;;;;8295112;28;20032;-76
2023/04/24 14:48:25;;;;;;;3.70;2.80;;;;;;;;;;8281849;28;20061;-76
2023/04/24 14:52:25;;;;;;;2.87;2.57;;;;;;;;;;8282766;28;20037;-76
2023/04/24 14:56:25;;;;;;;5.38;3.00;;;;;;;;;;8279354;28;20061;-76
2023/04/24 15:00:26;;;;;;;4.70;3.15;;;;;;;;;;8285297;28;20141;-77
2023/04/24 15:04:27;;;;;;;4.53;3.08;;;;;;;;;;8283563;28;20683;-75
2023/04/24 15:08:27;;;;;;;3.53;2.40;;;;;;;;;;8283292;28;21028;-76
2023/04/24 15:12:28;;;;;;;2.85;2.30;;;;;;;;;;8281951;28;20744;-76
2023/04/24 15:16:29;;;;;;;3.47;2.80;;;;;;;;;;8288380;28;20136;-75
2023/04/24 15:20:33;;;;;;;5.18;2.80;;;;;;;;;;8292070;28;20115;-76
2023/04/24 15:24:34;;;;;;;5.93;2.53;;;;;;;;;;8297163;28;20028;-75
2023/04/24 15:28:34;;;;;;;3.17;2.80;;;;;;;;;;8293009;28;20035;-76
2023/04/24 15:32:34;;;;;;;4.13;3.05;;;;;;;;;;8298725;28;20037;-76
2023/04/24 15:36:34;;;;;;;2.88;2.50;;;;;;;;;;8297318;28;20067;-76
2023/04/24 15:40:35;;;;;;;3.85;2.90;;;;;;;;;;8295254;28;20755;-76
2023/04/24 15:44:35;;;;;;;3.50;2.65;;;;;;;;;;8304967;28;20021;-76
2023/04/24 15:48:35;;;;;;;2.40;2.20;;;;;;;;;;8299747;28;20061;-75
2023/04/24 15:52:36;;;;;;;2.38;2.10;;;;;;;;;;8295815;28;20018;-77
2023/04/24 15:56:36;;;;;;;3.75;2.25;;;;;;;;;;8298005;28;20025;-76
2023/04/24 16:00:37;;;;;;;3.80;1.87;;;;;;;;;;8301383;28;20100;-78
2023/04/24 16:04:37;;;;;;;2.33;2.15;;;;;;;;;;8306065;28;20268;-77
2023/04/24 16:08:37;;;;;;;3.45;2.33;;;;;;;;;;8300549;28;20029;-76
2023/04/24 16:12:37;;;;;;;3.70;2.42;;;;;;;;;;8298472;28;20028;-76
2023/04/24 16:16:37;;;;;;;3.35;2.80;;;;;;;;;;8301451;28;20065;-75
2023/04/24 16:20:38;;;;;;;3.90;2.60;;;;;;;;;;8298544;28;20148;-75
2023/04/24 16:24:38;;;;;;;3.05;2.35;;;;;;;;;;8291249;28;20028;-76
2023/04/24 16:28:38;;;;;;;4.53;2.70;;;;;;;;;;8291966;28;20021;-75
2023/04/24 16:32:39;;;;;;;2.88;2.50;;;;;;;;;;8291214;28;20053;-75
2023/04/24 16:36:39;;;;;;;3.35;2.40;;;;;;;;;;8289364;28;20083;-76
2023/04/24 16:40:41;;;;;;;2.40;2.20;;;;;;;;;;8287221;28;20029;-75
2023/04/24 16:44:41;;;;;;;3.90;2.75;;;;;;;;;;8286461;28;20029;-75
2023/04/24 16:48:41;;;;;;;3.20;2.17;;;;;;;;;;8304157;28;20762;-75
2023/04/24 16:52:42;;;;;;;2.10;1.90;;;;;;;;;;8289887;28;20025;-76
2023/04/24 16:56:42;;;;;;;2.35;2.15;;;;;;;;;;8286420;28;20279;-75
2023/04/24 17:00:43;;;;;;;2.78;2.20;;;;;;;;;;8286575;28;20037;-75
2023/04/24 17:04:43;;;;;;;3.25;2.35;;;;;;;;;;8288317;28;20663;-76
2023/04/24 17:08:43;;;;;;;3.22;2.17;;;;;;;;;;8290152;28;21019;-75
2023/04/24 17:12:44;;;;;;;2.80;1.83;;;;;;;;;;8291666;28;20137;-75
2023/04/24 17:16:44;;;;;;;1.90;1.80;;;;;;;;;;8291376;28;20053;-75
2023/04/24 17:20:45;;;;;;;2.13;1.85;;;;;;;;;;8287152;28;20025;-74
2023/04/24 17:24:45;;;;;;;9.05;3.10;;;;;;;;;;8302958;28;20047;-74
2023/04/24 17:28:45;;;;;;;2.30;1.80;;;;;;;;;;8296412;28;20083;-74
2023/04/24 17:32:45;;;;;;;2.80;2.30;;;;;;;;;;8293498;28;20514;-75
2023/04/24 17:36:45;;;;;;;2.88;2.50;;;;;;;;;;8301230;28;20032;-74
2023/04/24 17:40:46;;;;;;;3.42;2.20;;;;;;;;;;8306696;28;20065;-75
2023/04/24 17:44:46;;;;;;;3.55;2.55;;;;;;;;;;8304992;28;20021;-74
2023/04/24 17:48:46;;;;;;;4.30;3.53;;;;;;;;;;8313005;28;20407;-74
2023/04/24 17:52:47;;;;;;;4.72;2.20;;;;;;;;;;8316127;28;20287;-74
2023/04/24 17:56:47;;;;;;;3.42;1.80;;;;;;;;;;8307259;28;20017;-74
2023/04/24 18:00:48;;;;;;;2.53;1.90;;;;;;;;;;8310671;28;20032;-75
2023/04/24 18:04:48;;;;;;;2.40;1.73;;;;;;;;;;8313624;28;20022;-75
2023/04/24 18:08:48;;;;;;;2.17;1.90;;;;;;;;;;8302221;28;21140;-74
2023/04/24 18:12:48;;;;;;;1.88;1.67;;;;;;;;;;8317012;28;20025;-73
2023/04/24 18:16:49;;;;;;;1.63;1.50;;;;;;;;;;8294834;28;20164;-75
2023/04/24 18:20:49;;;;;;;1.67;1.57;;;;;;;;;;8296606;28;20029;-74
2023/04/24 18:24:49;;;;;;;2.13;1.93;;;;;;;;;;8280227;28;20279;-74
2023/04/24 18:28:49;;;;;;;2.20;1.80;;;;;;;;;;8284821;28;20029;-75
2023/04/24 18:32:51;;;;;;;2.85;1.92;;;;;;;;;;8287199;28;20290;-74
2023/04/24 18:36:53;;;;;;;3.85;2.22;;;;;;;;;;8293967;28;20058;-74
2023/04/24 18:40:53;;;;;;;3.13;2.28;;;;;;;;;;8291365;28;21049;-74
2023/04/24 18:44:54;;;;;;;4.50;2.28;;;;;;;;;;8296776;28;20026;-74
2023/04/24 18:48:55;;;;;;;3.00;2.28;;;;;;;;;;8284914;28;20048;-74
2023/04/24 18:52:55;;;;;;;3.20;2.23;;;;;;;;;;8294423;28;20033;-75
2023/04/24 18:56:55;;;;;;;3.20;2.40;;;;;;;;;;8299748;28;21110;-74
2023/04/24 19:00:55;;;;;;;3.78;2.35;;;;;;;;;;8290815;28;20065;-75
2023/04/24 19:04:56;;;;;;;3.00;2.30;;;;;;;;;;8290106;28;20032;-75
2023/04/24 19:08:56;;;;;;;3.00;2.70;;;;;;;;;;8289200;28;20026;-76
2023/04/24 19:12:56;;;;;;;4.40;3.05;;;;;;;;;;8298765;28;20284;-76
2023/04/24 19:16:56;;;;;;;4.45;2.33;;;;;;;;;;8296626;28;20038;-75
2023/04/24 19:20:58;;;;;;;2.95;2.30;;;;;;;;;;8291940;28;20131;-75
2023/04/24 19:24:58;;;;;;;3.00;2.47;;;;;;;;;;8286684;28;21062;-74
2023/04/24 19:28:58;;;;;;;3.10;2.47;;;;;;;;;;8284038;28;20068;-74
2023/04/24 19:32:59;;;;;;;2.90;2.60;;;;;;;;;;8285170;28;20981;-74
2023/04/24 19:36:59;;;;;;;4.22;2.40;;;;;;;;;;8283602;28;20029;-75
2023/04/24 19:40:59;;;;;;;2.90;2.60;;;;;;;;;;8284689;28;20034;-75
2023/04/24 19:44:59;;;;;;;3.88;2.85;;;;;;;;;;8281629;28;20071;-74
2023/04/24 19:49:00;;;;;;;3.23;2.93;;;;;;;;;;8284381;28;20168;-73
2023/04/24 19:53:00;;;;;;;4.22;2.92;;;;;;;;;;8282736;28;20394;-74
2023/04/24 19:57:00;;;;;;;4.90;3.05;;;;;;;;;;8285665;28;20083;-73
2023/04/24 20:01:00;;;;;;;3.90;3.10;;;;;;;;;;8282240;28;20026;-74
2023/04/24 20:05:01;;;;;;;3.60;2.97;;;;;;;;;;8284245;28;20418;-74
2023/04/24 20:09:01;;;;;;;5.22;3.22;;;;;;;;;;8282440;28;20041;-74
2023/04/24 20:13:01;;;;;;;4.15;2.90;;;;;;;;;;8282954;28;20018;-74
2023/04/24 20:17:01;;;;;;;3.93;2.97;;;;;;;;;;8286828;28;20029;-74
2023/04/24 20:21:02;;;;;;;3.60;3.15;;;;;;;;;;8285907;28;20033;-75
2023/04/24 20:25:02;;;;;;;4.03;3.00;;;;;;;;;;8287715;28;20025;-74
2023/04/24 20:29:03;;;;;;;4.32;3.00;;;;;;;;;;8285426;28;20352;-75
2023/04/24 20:33:03;;;;;;;2.53;2.33;;;;;;;;;;8284275;28;20041;-75
2023/04/24 20:37:04;;;;;;;4.35;3.00;;;;;;;;;;8280550;28;20929;-75
2023/04/24 20:41:04;;;;;;;3.15;2.72;;;;;;;;;;8281486;28;20033;-74
2023/04/24 20:45:06;;;;;;;4.32;3.20;;;;;;;;;;8280875;28;20018;-75
2023/04/24 20:49:07;;;;;;;5.78;3.45;;;;;;;;;;8280677;28;20104;-74
2023/04/24 20:53:08;;;;;;;5.72;3.53;;;;;;;;;;8281008;28;20026;-73
2023/04/24 20:57:09;;;;;;;4.53;3.50;;;;;;;;;;8283884;28;20046;-73
2023/04/24 21:01:09;;;;;;;4.07;3.57;;;;;;;;;;8281313;28;20153;-72
2023/04/24 21:05:09;;;;;;;4.28;3.58;;;;;;;;;;8278388;28;20025;-73
2023/04/24 21:09:10;;;;;;;4.45;3.60;;;;;;;;;;8279082;28;20022;-73
2023/04/24 21:13:10;;;;;;;5.20;3.72;;;;;;;;;;8282173;28;20025;-73
2023/04/24 21:17:11;;;;;;;7.70;4.13;;;;;;;;;;8281529;28;20121;-73
2023/04/24 21:21:11;;;;;;;5.90;3.80;;;;;;;;;;8280920;28;20067;-73
2023/04/24 21:25:12;;;;;;;4.95;3.95;;;;;;;;;;8280740;28;20858;-73
2023/04/24 21:29:12;;;;;;;7.65;4.15;;;;;;;;;;8298387;28;20562;-73
2023/04/24 21:33:12;;;;;;;4.83;3.70;;;;;;;;;;8281056;28;20045;-74
2023/04/24 21:37:16;;;;;;;5.88;3.17;;;;;;;;;;8284880;28;20334;-74
2023/04/24 21:41:16;;;;;;;4.47;2.70;;;;;;;;;;8284191;28;20776;-73
2023/04/24 21:45:16;;;;;;;4.38;2.20;;;;;;;;;;8282892;28;20013;-74
2023/04/24 21:49:16;;;;;;;2.25;2.05;;;;;;;;;;8250652;28;20505;-73
2023/04/24 21:53:16;;;;;;;3.70;2.45;;;;;;;;;;8248834;28;20034;-73
2023/04/24 21:57:17;;;;;;;2.17;1.98;;;;;;;;;;8254680;28;20014;-73
2023/04/24 22:01:17;;;;;;;2.30;2.10;;;;;;;;;;8249832;28;20061;-74
2023/04/24 22:05:19;;;;;;;3.67;2.53;;;;;;;;;;8251541;28;20055;-73
2023/04/24 22:09:20;;;;;;;2.20;2.00;;;;;;;;;;8254239;28;20072;-73
2023/04/24 22:13:20;;;;;;;2.45;2.25;;;;;;;;;;8254689;28;20099;-74
2023/04/24 22:17:22;;;;;;;2.72;2.00;;;;;;;;;;8253201;28;20522;-73
2023/04/24 22:21:22;;;;;;;2.58;2.00;;;;;;;;;;8252835;28;20026;-73
2023/04/24 22:25:22;;;;;;;2.53;1.80;;;;;;;;;;8253320;28;20885;-73
2023/04/24 22:29:22;;;;;;;1.85;1.70;;;;;;;;;;8253467;28;20053;-73
2023/04/24 22:33:23;;;;;;;1.60;1.50;;;;;;;;;;8255023;28;20048;-73
2023/04/24 22:37:23;;;;;;;2.65;2.17;;;;;;;;;;8255043;28;20026;-73
2023/04/24 22:41:23;;;;;;;2.30;2.10;;;;;;;;;;8253250;28;20041;-73
2023/04/24 22:45:25;;;;;;;2.60;2.40;;;;;;;;;;8254025;28;20084;-74
2023/04/24 22:49:26;;;;;;;2.85;2.38;;;;;;;;;;8252091;28;20025;-73
2023/04/24 22:53:27;;;;;;;2.40;2.20;;;;;;;;;;8253435;28;20036;-74
2023/04/24 22:57:28;;;;;;;3.17;2.35;;;;;;;;;;8252336;28;20025;-73
2023/04/24 23:01:29;;;;;;;2.40;2.20;;;;;;;;;;8256280;28;20040;-74
2023/04/24 23:05:29;;;;;;;4.55;2.60;;;;;;;;;;8256510;28;20060;-73
2023/04/24 23:09:30;;;;;;;2.95;2.70;;;;;;;;;;8255017;28;21783;-73
2023/04/24 23:13:30;;;;;;;2.78;2.58;;;;;;;;;;8254772;28;20030;-73
2023/04/24 23:17:30;;;;;;;3.23;2.93;;;;;;;;;;8253422;28;20044;-73
2023/04/24 23:21:33;;;;;;;2.60;2.38;;;;;;;;;;8252077;28;20284;-73
2023/04/24 23:25:33;;;;;;;2.85;2.65;;;;;;;;;;8252536;28;20026;-74
2023/04/24 23:29:34;;;;;;;3.20;2.80;;;;;;;;;;8254327;28;20022;-74
2023/04/24 23:33:34;;;;;;;4.88;2.72;;;;;;;;;;8254555;28;20061;-74
2023/04/24 23:37:37;;;;;;;2.88;2.58;;;;;;;;;;8254352;28;20589;-73
2023/04/24 23:41:37;;;;;;;3.28;2.55;;;;;;;;;;8254953;28;20072;-73
2023/04/24 23:45:39;;;;;;;2.75;2.38;;;;;;;;;;8252515;28;20793;-74
2023/04/24 23:49:39;;;;;;;2.65;2.45;;;;;;;;;;8252862;28;20024;-73
2023/04/24 23:53:40;;;;;;;2.92;2.60;;;;;;;;;;8254027;28;20120;-73
2023/04/24 23:57:40;;;;;;;3.55;2.90;;;;;;;;;;8253584;28;20110;-72
